Time;durP1;ratioP1;P1;durP2;ratioP2;P2;SDS_P1;SDS_P2;PMS_P1;PMS_P2;Temp;Humidity;BMP_temperature;BMP_pressure;BME280_temperature;BME280_humidity;BME280_pressure;Samples;Min_cycle;Max_cycle;Signal;HPM_P1;HPM_P2
2021/09/04 00:00:35;;;;;;;4.10;0.98;;;;;;;;;;4999195;28;20107;-57
2021/09/04 00:03:02;;;;;;;2.47;0.90;;;;;;;;;;5001846;28;20038;-57
2021/09/04 00:05:29;;;;;;;4.78;0.90;;;;;;;;;;5000166;28;20341;-54
2021/09/04 00:07:54;;;;;;;3.70;0.85;;;;;;;;;;5002446;28;20038;-57
2021/09/04 00:10:20;;;;;;;2.60;0.85;;;;;;;;;;5000925;28;20457;-56
2021/09/04 00:12:46;;;;;;;4.63;1.00;;;;;;;;;;5001005;28;20580;-54
2021/09/04 00:15:12;;;;;;;3.90;0.80;;;;;;;;;;5000584;28;20045;-57
2021/09/04 00:17:39;;;;;;;2.83;0.80;;;;;;;;;;4997552;28;20065;-56
2021/09/04 00:20:06;;;;;;;4.22;1.08;;;;;;;;;;5000666;28;20068;-56
2021/09/04 00:22:32;;;;;;;3.75;0.98;;;;;;;;;;4999955;28;20040;-56
2021/09/04 00:24:57;;;;;;;3.90;1.42;;;;;;;;;;4999017;28;20045;-55
2021/09/04 00:27:23;;;;;;;4.50;1.10;;;;;;;;;;4999560;28;20038;-56
2021/09/04 00:29:49;;;;;;;3.53;1.05;;;;;;;;;;5001581;28;20072;-56
2021/09/04 00:32:15;;;;;;;2.97;1.05;;;;;;;;;;5000526;28;20057;-56
2021/09/04 00:34:41;;;;;;;4.28;0.82;;;;;;;;;;4979137;28;20046;-55
2021/09/04 00:37:09;;;;;;;3.58;0.88;;;;;;;;;;4998826;28;20077;-55
2021/09/04 00:39:35;;;;;;;7.45;1.25;;;;;;;;;;4999820;28;20165;-55
2021/09/04 00:42:00;;;;;;;3.28;1.10;;;;;;;;;;5000821;28;20052;-54
2021/09/04 00:44:27;;;;;;;7.50;0.95;;;;;;;;;;4998924;28;20156;-54
2021/09/04 00:47:03;;;;;;;6.65;1.10;;;;;;;;;;4983700;28;20156;-56
2021/09/04 00:49:30;;;;;;;2.90;0.85;;;;;;;;;;4987354;28;20065;-56
2021/09/04 00:51:56;;;;;;;5.28;0.90;;;;;;;;;;5000081;28;20046;-57
2021/09/04 00:54:22;;;;;;;2.63;0.85;;;;;;;;;;4998974;28;20095;-56
2021/09/04 00:56:48;;;;;;;4.25;0.90;;;;;;;;;;4999418;28;20112;-57
2021/09/04 00:59:13;;;;;;;5.47;1.00;;;;;;;;;;4999961;28;20069;-54
2021/09/04 01:01:39;;;;;;;3.08;1.00;;;;;;;;;;4999984;28;20059;-57
2021/09/04 01:04:05;;;;;;;3.63;0.90;;;;;;;;;;5001640;28;20034;-57
2021/09/04 01:06:31;;;;;;;4.38;1.00;;;;;;;;;;4997178;28;20041;-54
2021/09/04 01:08:57;;;;;;;7.43;1.90;;;;;;;;;;4998131;28;20044;-56
2021/09/04 01:11:23;;;;;;;3.30;1.00;;;;;;;;;;4998174;28;20139;-55
2021/09/04 01:13:49;;;;;;;3.05;1.10;;;;;;;;;;4999420;28;20029;-56
2021/09/04 01:16:15;;;;;;;5.38;1.10;;;;;;;;;;5000046;28;20131;-55
2021/09/04 01:18:41;;;;;;;3.88;0.90;;;;;;;;;;4999945;28;20140;-55
2021/09/04 01:21:08;;;;;;;5.10;1.00;;;;;;;;;;4999506;28;20065;-56
2021/09/04 01:23:34;;;;;;;2.80;0.90;;;;;;;;;;4996728;28;20057;-56
2021/09/04 01:26:04;;;;;;;2.45;0.80;;;;;;;;;;4998833;28;20077;-56
2021/09/04 01:28:30;;;;;;;2.78;0.85;;;;;;;;;;4983378;28;20038;-57
2021/09/04 01:30:56;;;;;;;2.97;1.10;;;;;;;;;;4998864;28;20518;-54
2021/09/04 01:33:21;;;;;;;3.58;1.00;;;;;;;;;;4997736;28;20072;-55
2021/09/04 01:35:47;;;;;;;3.10;1.00;;;;;;;;;;4998753;28;20042;-56
2021/09/04 01:38:13;;;;;;;2.83;1.00;;;;;;;;;;4998570;28;20112;-55
2021/09/04 01:40:39;;;;;;;2.83;1.00;;;;;;;;;;4999109;28;20108;-56
2021/09/04 01:43:05;;;;;;;3.85;1.20;;;;;;;;;;4999592;28;20993;-56
2021/09/04 01:45:31;;;;;;;3.25;1.00;;;;;;;;;;4998796;28;20034;-56
2021/09/04 01:47:57;;;;;;;3.40;1.00;;;;;;;;;;4999246;28;20046;-57
2021/09/04 01:50:23;;;;;;;3.55;0.98;;;;;;;;;;4998199;28;20038;-56
2021/09/04 01:52:48;;;;;;;7.30;1.92;;;;;;;;;;4999056;28;20054;-56
2021/09/04 01:55:16;;;;;;;2.95;1.00;;;;;;;;;;4998288;28;20120;-56
2021/09/04 01:57:42;;;;;;;3.10;1.10;;;;;;;;;;4996790;28;20413;-55
2021/09/04 02:00:09;;;;;;;8.23;2.08;;;;;;;;;;4998774;28;20050;-57
2021/09/04 02:02:35;;;;;;;6.53;1.30;;;;;;;;;;4998074;28;20037;-56
2021/09/04 02:05:01;;;;;;;7.72;1.92;;;;;;;;;;4998542;28;20088;-55
2021/09/04 02:07:28;;;;;;;5.28;2.10;;;;;;;;;;4995766;28;20056;-55
2021/09/04 02:09:54;;;;;;;5.70;1.35;;;;;;;;;;4997635;28;20046;-56
2021/09/04 02:12:20;;;;;;;8.00;1.70;;;;;;;;;;4997294;28;20417;-56
2021/09/04 02:14:45;;;;;;;3.35;1.10;;;;;;;;;;4998830;28;20042;-55
2021/09/04 02:17:11;;;;;;;3.90;1.23;;;;;;;;;;4998426;28;20053;-56
2021/09/04 02:19:37;;;;;;;5.68;1.73;;;;;;;;;;4997844;28;20054;-56
2021/09/04 02:22:03;;;;;;;7.15;1.10;;;;;;;;;;4999552;28;20042;-56
2021/09/04 02:24:29;;;;;;;3.88;0.98;;;;;;;;;;4996123;28;20052;-56
2021/09/04 02:26:56;;;;;;;5.25;1.05;;;;;;;;;;4998713;28;20042;-54
2021/09/04 02:29:21;;;;;;;4.35;0.90;;;;;;;;;;4977208;28;20453;-54
2021/09/04 02:31:47;;;;;;;3.67;1.10;;;;;;;;;;4975577;28;20103;-54
2021/09/04 02:34:13;;;;;;;5.20;1.13;;;;;;;;;;4996572;28;20034;-55
2021/09/04 02:36:39;;;;;;;4.10;1.30;;;;;;;;;;4994359;28;20049;-55
2021/09/04 02:39:05;;;;;;;6.18;1.40;;;;;;;;;;4996762;28;20132;-55
2021/09/04 02:41:31;;;;;;;6.05;1.52;;;;;;;;;;4997092;28;20153;-55
2021/09/04 02:43:57;;;;;;;4.35;1.00;;;;;;;;;;5000302;28;20556;-55
2021/09/04 02:46:22;;;;;;;4.20;0.90;;;;;;;;;;4998240;28;20056;-55
2021/09/04 02:48:48;;;;;;;4.43;1.20;;;;;;;;;;4998625;28;21157;-54
2021/09/04 02:51:14;;;;;;;5.75;1.25;;;;;;;;;;4999309;28;20136;-55
2021/09/04 02:53:40;;;;;;;4.95;1.23;;;;;;;;;;4997270;28;20060;-55
2021/09/04 02:56:06;;;;;;;5.00;1.20;;;;;;;;;;4998456;28;20060;-56
2021/09/04 02:58:31;;;;;;;5.80;1.27;;;;;;;;;;5001098;28;20084;-57
2021/09/04 03:00:57;;;;;;;5.82;1.38;;;;;;;;;;5003060;28;20037;-54
2021/09/04 03:03:23;;;;;;;4.13;1.15;;;;;;;;;;5002091;28;20123;-56
2021/09/04 03:05:49;;;;;;;4.80;1.20;;;;;;;;;;5003385;28;20034;-56
2021/09/04 03:08:14;;;;;;;9.68;1.20;;;;;;;;;;5002807;28;20037;-55
2021/09/04 03:10:40;;;;;;;3.78;1.70;;;;;;;;;;5003308;28;20062;-58
2021/09/04 03:13:06;;;;;;;7.43;1.55;;;;;;;;;;5003335;28;20072;-57
2021/09/04 03:15:32;;;;;;;4.45;1.25;;;;;;;;;;5001740;28;20794;-56
2021/09/04 03:17:58;;;;;;;4.63;1.58;;;;;;;;;;4989342;28;20119;-56
2021/09/04 03:20:23;;;;;;;4.00;1.10;;;;;;;;;;5003570;28;20438;-57
2021/09/04 03:22:49;;;;;;;4.47;1.25;;;;;;;;;;5001888;28;20048;-56
2021/09/04 03:25:15;;;;;;;4.90;0.93;;;;;;;;;;5001589;28;20124;-56
2021/09/04 03:27:41;;;;;;;5.70;1.30;;;;;;;;;;5000314;28;20050;-56
2021/09/04 03:30:07;;;;;;;4.90;1.55;;;;;;;;;;5000349;28;20091;-57
2021/09/04 03:32:33;;;;;;;3.65;1.65;;;;;;;;;;5000611;28;20132;-57
2021/09/04 03:34:59;;;;;;;4.40;1.70;;;;;;;;;;5000088;28;20108;-57
2021/09/04 03:37:25;;;;;;;4.40;1.48;;;;;;;;;;4999908;28;20041;-57
2021/09/04 03:39:51;;;;;;;5.40;1.45;;;;;;;;;;5002855;28;20049;-57
2021/09/04 03:42:17;;;;;;;5.60;1.45;;;;;;;;;;5000952;28;20041;-56
2021/09/04 03:44:43;;;;;;;7.78;1.70;;;;;;;;;;5002703;28;20062;-57
2021/09/04 03:47:08;;;;;;;3.85;1.38;;;;;;;;;;5001095;28;20504;-57
2021/09/04 03:49:34;;;;;;;5.60;2.03;;;;;;;;;;5001267;28;20038;-55
2021/09/04 03:52:00;;;;;;;4.32;1.63;;;;;;;;;;5001103;28;20053;-56
2021/09/04 03:54:26;;;;;;;4.05;1.52;;;;;;;;;;5001386;28;20042;-57
2021/09/04 03:56:53;;;;;;;5.28;1.60;;;;;;;;;;4999567;28;20049;-56
2021/09/04 03:59:20;;;;;;;7.10;1.35;;;;;;;;;;4999458;28;20052;-56
2021/09/04 04:01:46;;;;;;;2.75;1.00;;;;;;;;;;5001374;28;20038;-57
2021/09/04 04:04:11;;;;;;;5.50;1.80;;;;;;;;;;5000341;28;20084;-57
2021/09/04 04:06:37;;;;;;;3.42;1.30;;;;;;;;;;4999991;28;20095;-56
2021/09/04 04:09:03;;;;;;;8.18;1.55;;;;;;;;;;5000729;28;20041;-57
2021/09/04 04:11:29;;;;;;;5.35;1.40;;;;;;;;;;4999772;28;20065;-55
2021/09/04 04:13:55;;;;;;;11.48;1.70;;;;;;;;;;5001781;28;22021;-57
2021/09/04 04:16:20;;;;;;;6.10;1.20;;;;;;;;;;5000359;28;20412;-57
2021/09/04 04:18:46;;;;;;;3.45;1.23;;;;;;;;;;5001738;28;20095;-57
2021/09/04 04:21:12;;;;;;;4.60;1.10;;;;;;;;;;5000187;28;20511;-56
2021/09/04 04:23:38;;;;;;;3.50;1.27;;;;;;;;;;5000777;28;20046;-57
2021/09/04 04:26:04;;;;;;;3.55;1.10;;;;;;;;;;5000279;28;22747;-55
2021/09/04 04:28:30;;;;;;;5.45;1.60;;;;;;;;;;5000012;28;20033;-55
2021/09/04 04:30:55;;;;;;;5.45;2.17;;;;;;;;;;4999728;28;20084;-54
2021/09/04 04:33:21;;;;;;;8.07;2.17;;;;;;;;;;4999535;28;20057;-53
2021/09/04 04:35:47;;;;;;;3.65;1.60;;;;;;;;;;5001075;28;20038;-53
2021/09/04 04:38:13;;;;;;;8.07;1.63;;;;;;;;;;4999595;28;20057;-54
2021/09/04 04:40:39;;;;;;;4.35;1.70;;;;;;;;;;4999513;28;20489;-52
2021/09/04 04:43:07;;;;;;;4.05;1.30;;;;;;;;;;4999738;28;20091;-51
2021/09/04 04:45:33;;;;;;;6.07;1.30;;;;;;;;;;4999795;28;20085;-55
2021/09/04 04:47:59;;;;;;;4.00;1.40;;;;;;;;;;5000007;28;20046;-53
2021/09/04 04:50:25;;;;;;;3.33;1.10;;;;;;;;;;4998609;28;20360;-54
2021/09/04 04:52:51;;;;;;;3.08;1.10;;;;;;;;;;5000276;28;20053;-54
2021/09/04 04:55:17;;;;;;;3.67;1.20;;;;;;;;;;5000441;28;20033;-55
2021/09/04 04:57:42;;;;;;;5.63;1.15;;;;;;;;;;4997164;28;20416;-53
2021/09/04 05:00:09;;;;;;;6.25;1.17;;;;;;;;;;4998500;28;20038;-53
2021/09/04 05:02:35;;;;;;;5.03;1.10;;;;;;;;;;4998682;28;20073;-54
2021/09/04 05:05:01;;;;;;;4.50;1.15;;;;;;;;;;4978494;28;20125;-54
2021/09/04 05:07:26;;;;;;;3.20;1.15;;;;;;;;;;4996482;28;20034;-54
2021/09/04 05:09:52;;;;;;;2.80;1.00;;;;;;;;;;4999891;28;20555;-54
2021/09/04 05:12:18;;;;;;;3.17;1.20;;;;;;;;;;4996455;28;22060;-55
2021/09/04 05:14:44;;;;;;;4.05;1.05;;;;;;;;;;4997014;28;20049;-55
2021/09/04 05:17:09;;;;;;;3.00;1.20;;;;;;;;;;4975779;28;20080;-54
2021/09/04 05:19:35;;;;;;;4.82;1.20;;;;;;;;;;4997153;28;20050;-54
2021/09/04 05:22:01;;;;;;;5.40;1.40;;;;;;;;;;4997993;28;20994;-51
2021/09/04 05:24:27;;;;;;;4.93;1.20;;;;;;;;;;4998554;28;20399;-55
2021/09/04 05:26:53;;;;;;;3.75;1.42;;;;;;;;;;4999917;28;20038;-55
2021/09/04 05:29:18;;;;;;;4.53;1.33;;;;;;;;;;4999643;28;20057;-54
2021/09/04 05:31:44;;;;;;;4.03;1.30;;;;;;;;;;4999825;28;20580;-55
2021/09/04 05:34:10;;;;;;;3.40;1.30;;;;;;;;;;4998239;28;20104;-54
2021/09/04 05:36:36;;;;;;;4.00;1.23;;;;;;;;;;4997256;28;20045;-54
2021/09/04 05:39:02;;;;;;;3.13;1.20;;;;;;;;;;4999849;28;20928;-54
2021/09/04 05:41:27;;;;;;;3.95;1.50;;;;;;;;;;4998906;28;20082;-54
2021/09/04 05:43:53;;;;;;;6.47;1.30;;;;;;;;;;4983019;28;20030;-55
2021/09/04 05:46:19;;;;;;;3.78;1.20;;;;;;;;;;4999729;28;20049;-54
2021/09/04 05:48:45;;;;;;;4.60;1.20;;;;;;;;;;5002778;28;20041;-53
2021/09/04 05:51:11;;;;;;;3.97;1.35;;;;;;;;;;5001473;28;20041;-54
2021/09/04 05:53:39;;;;;;;9.65;1.60;;;;;;;;;;5001155;28;20046;-53
2021/09/04 05:56:05;;;;;;;4.13;1.70;;;;;;;;;;5000058;28;20599;-54
2021/09/04 05:58:31;;;;;;;4.60;1.70;;;;;;;;;;4981583;28;20066;-54
2021/09/04 06:00:57;;;;;;;6.82;1.95;;;;;;;;;;4998983;28;20052;-54
2021/09/04 06:03:23;;;;;;;4.38;1.50;;;;;;;;;;4997938;28;20034;-55
2021/09/04 06:05:49;;;;;;;5.43;1.52;;;;;;;;;;4998519;28;20046;-54
2021/09/04 06:08:15;;;;;;;14.65;2.63;;;;;;;;;;4999063;28;20049;-54
2021/09/04 06:10:40;;;;;;;13.82;3.97;;;;;;;;;;4996499;28;20054;-54
2021/09/04 06:13:06;;;;;;;8.57;2.92;;;;;;;;;;4999819;28;20176;-55
2021/09/04 06:15:32;;;;;;;6.95;2.25;;;;;;;;;;5001098;28;20026;-55
2021/09/04 06:17:58;;;;;;;6.57;2.78;;;;;;;;;;5005921;28;20160;-55
2021/09/04 06:20:24;;;;;;;6.03;1.70;;;;;;;;;;4956297;28;20044;-52
2021/09/04 06:22:50;;;;;;;5.75;1.52;;;;;;;;;;5005049;28;20034;-53
2021/09/04 06:25:15;;;;;;;5.45;2.10;;;;;;;;;;5006174;28;20056;-54
2021/09/04 06:27:41;;;;;;;9.00;2.20;;;;;;;;;;5004305;28;20133;-53
2021/09/04 06:30:08;;;;;;;6.40;1.80;;;;;;;;;;5002418;28;22143;-53
2021/09/04 06:32:34;;;;;;;11.25;1.85;;;;;;;;;;5002192;28;20049;-51
2021/09/04 06:34:59;;;;;;;7.97;2.25;;;;;;;;;;5001943;28;20065;-55
2021/09/04 06:37:25;;;;;;;4.78;1.63;;;;;;;;;;5001860;28;20045;-55
2021/09/04 06:39:51;;;;;;;7.47;2.22;;;;;;;;;;5003116;28;20499;-53
2021/09/04 06:42:17;;;;;;;8.23;2.00;;;;;;;;;;5003366;28;20159;-55
2021/09/04 06:44:43;;;;;;;4.20;1.90;;;;;;;;;;5002104;28;20041;-55
2021/09/04 06:47:09;;;;;;;7.55;2.15;;;;;;;;;;5002318;28;20050;-54
2021/09/04 06:49:35;;;;;;;6.60;2.35;;;;;;;;;;5001494;28;20576;-54
2021/09/04 06:52:01;;;;;;;5.43;1.80;;;;;;;;;;5002078;28;20369;-54
2021/09/04 06:54:27;;;;;;;4.90;1.70;;;;;;;;;;5001865;28;20049;-54
2021/09/04 06:56:54;;;;;;;6.57;1.98;;;;;;;;;;5003158;28;20041;-55
2021/09/04 06:59:20;;;;;;;3.75;1.60;;;;;;;;;;5001833;28;20038;-51
2021/09/04 07:01:46;;;;;;;4.97;2.03;;;;;;;;;;5001977;28;20045;-54
2021/09/04 07:04:12;;;;;;;11.95;2.38;;;;;;;;;;5001677;28;20045;-51
2021/09/04 07:06:38;;;;;;;4.57;1.88;;;;;;;;;;5000453;28;20049;-55
2021/09/04 07:09:04;;;;;;;6.35;2.28;;;;;;;;;;5002432;28;20041;-52
2021/09/04 07:11:30;;;;;;;7.07;2.00;;;;;;;;;;5002129;28;20073;-54
2021/09/04 07:13:55;;;;;;;9.07;2.72;;;;;;;;;;5002375;28;20482;-52
2021/09/04 07:16:21;;;;;;;7.40;2.30;;;;;;;;;;5000373;28;20796;-55
2021/09/04 07:18:47;;;;;;;6.10;2.25;;;;;;;;;;5001203;28;20057;-54
2021/09/04 07:21:13;;;;;;;9.57;1.92;;;;;;;;;;5002829;28;20042;-51
2021/09/04 07:23:39;;;;;;;3.20;1.40;;;;;;;;;;5000571;28;20277;-54
2021/09/04 07:26:05;;;;;;;4.10;1.48;;;;;;;;;;5000616;28;20038;-55
2021/09/04 07:28:31;;;;;;;5.82;1.65;;;;;;;;;;4999453;28;20531;-51
2021/09/04 07:30:58;;;;;;;5.68;1.48;;;;;;;;;;5001536;28;20061;-52
2021/09/04 07:33:24;;;;;;;7.47;1.77;;;;;;;;;;5000348;28;20057;-53
2021/09/04 07:35:50;;;;;;;8.77;1.58;;;;;;;;;;5002026;28;20068;-55
2021/09/04 07:38:15;;;;;;;5.65;1.63;;;;;;;;;;4981778;28;20128;-54
2021/09/04 07:40:42;;;;;;;7.95;1.95;;;;;;;;;;5001214;28;20042;-55
2021/09/04 07:43:08;;;;;;;9.10;1.90;;;;;;;;;;5002862;28;20067;-52
2021/09/04 07:45:35;;;;;;;4.40;1.77;;;;;;;;;;4999179;28;20048;-54
2021/09/04 07:48:01;;;;;;;4.43;1.70;;;;;;;;;;5001666;28;20508;-55
2021/09/04 07:50:27;;;;;;;3.80;1.40;;;;;;;;;;4999371;28;20130;-55
2021/09/04 07:52:53;;;;;;;5.13;1.85;;;;;;;;;;5001284;28;20076;-55
2021/09/04 07:55:19;;;;;;;5.80;1.52;;;;;;;;;;5000861;28;20378;-55
2021/09/04 07:57:45;;;;;;;12.02;1.67;;;;;;;;;;5001553;28;20037;-54
2021/09/04 08:00:11;;;;;;;3.17;1.40;;;;;;;;;;5001839;28;20092;-54
2021/09/04 08:02:37;;;;;;;5.68;1.60;;;;;;;;;;4999402;28;20231;-54
2021/09/04 08:05:03;;;;;;;6.22;1.48;;;;;;;;;;5001542;28;20076;-55
2021/09/04 08:07:29;;;;;;;8.32;1.88;;;;;;;;;;4978786;28;20338;-53
2021/09/04 08:09:54;;;;;;;5.50;1.27;;;;;;;;;;5001611;28;20509;-53
2021/09/04 08:12:20;;;;;;;5.55;1.40;;;;;;;;;;4999604;28;20042;-55
2021/09/04 08:14:46;;;;;;;3.97;1.33;;;;;;;;;;5000681;28;20042;-55
2021/09/04 08:17:12;;;;;;;7.18;1.60;;;;;;;;;;5000274;28;20610;-55
2021/09/04 08:19:38;;;;;;;6.50;1.63;;;;;;;;;;5000532;28;20053;-52
2021/09/04 08:22:04;;;;;;;10.50;1.77;;;;;;;;;;5000416;28;20128;-54
2021/09/04 08:24:31;;;;;;;5.20;1.88;;;;;;;;;;4999929;28;20121;-53
2021/09/04 08:26:57;;;;;;;4.05;1.60;;;;;;;;;;4999992;28;20073;-55
2021/09/04 08:29:23;;;;;;;5.00;1.33;;;;;;;;;;4999446;28;20564;-52
2021/09/04 08:31:49;;;;;;;12.13;1.85;;;;;;;;;;4999928;28;20046;-55
2021/09/04 08:34:15;;;;;;;5.03;1.65;;;;;;;;;;5001231;28;20037;-54
2021/09/04 08:36:41;;;;;;;6.47;1.75;;;;;;;;;;4999476;28;20159;-55
2021/09/04 08:39:07;;;;;;;10.35;1.75;;;;;;;;;;4999565;28;20044;-54
2021/09/04 08:41:35;;;;;;;11.82;1.42;;;;;;;;;;4999410;28;20038;-54
2021/09/04 08:44:01;;;;;;;3.55;1.42;;;;;;;;;;5001097;28;20034;-52
2021/09/04 08:46:32;;;;;;;7.85;1.70;;;;;;;;;;4998547;28;20408;-51
2021/09/04 08:48:59;;;;;;;9.27;1.70;;;;;;;;;;5000211;28;20179;-55
2021/09/04 08:51:25;;;;;;;7.22;1.92;;;;;;;;;;4998776;28;20095;-55
2021/09/04 08:53:50;;;;;;;6.85;1.40;;;;;;;;;;5000718;28;20045;-54
2021/09/04 08:56:16;;;;;;;3.83;1.50;;;;;;;;;;4985017;28;20892;-52
2021/09/04 08:58:42;;;;;;;9.65;1.73;;;;;;;;;;4999989;28;20133;-55
2021/09/04 09:01:18;;;;;;;6.10;1.48;;;;;;;;;;5001281;28;20092;-54
2021/09/04 09:03:44;;;;;;;6.65;1.50;;;;;;;;;;4999399;28;20041;-54
2021/09/04 09:06:11;;;;;;;7.25;1.27;;;;;;;;;;4999957;28;20124;-52
2021/09/04 09:08:41;;;;;;;8.65;1.80;;;;;;;;;;4999799;28;20069;-53
2021/09/04 09:11:07;;;;;;;5.45;1.42;;;;;;;;;;4999910;28;20053;-55
2021/09/04 09:13:33;;;;;;;7.72;1.85;;;;;;;;;;4998109;28;20049;-52
2021/09/04 09:15:59;;;;;;;6.53;1.77;;;;;;;;;;4998900;28;20088;-54
2021/09/04 09:18:28;;;;;;;9.05;1.55;;;;;;;;;;5000021;28;20492;-51
2021/09/04 09:21:01;;;;;;;9.18;1.77;;;;;;;;;;5001773;28;20232;-55
2021/09/04 09:23:27;;;;;;;4.72;1.60;;;;;;;;;;5001028;28;20633;-54
2021/09/04 09:25:53;;;;;;;6.97;1.52;;;;;;;;;;4999394;28;20042;-54
2021/09/04 09:28:20;;;;;;;4.82;1.48;;;;;;;;;;5000996;28;20571;-54
2021/09/04 09:30:50;;;;;;;3.83;1.50;;;;;;;;;;5001055;28;20150;-54
2021/09/04 09:33:19;;;;;;;5.63;1.77;;;;;;;;;;4978688;28;20057;-54
2021/09/04 09:35:46;;;;;;;4.90;1.60;;;;;;;;;;4998588;28;20042;-53
2021/09/04 09:38:22;;;;;;;10.55;2.08;;;;;;;;;;4999350;28;20573;-55
2021/09/04 09:40:50;;;;;;;4.80;1.55;;;;;;;;;;4998904;28;20987;-53
2021/09/04 09:43:28;;;;;;;4.90;1.70;;;;;;;;;;5000475;28;20042;-54
2021/09/04 09:45:55;;;;;;;7.68;1.85;;;;;;;;;;4998163;28;20046;-54
2021/09/04 09:48:22;;;;;;;9.93;2.25;;;;;;;;;;4998071;28;20042;-54
2021/09/04 09:50:48;;;;;;;4.90;1.92;;;;;;;;;;5000352;28;20038;-53
2021/09/04 09:53:14;;;;;;;5.03;1.67;;;;;;;;;;5003070;28;20061;-54
2021/09/04 09:55:43;;;;;;;6.43;2.20;;;;;;;;;;5002334;28;20178;-53
2021/09/04 09:58:09;;;;;;;5.00;1.52;;;;;;;;;;5003834;28;20365;-51
2021/09/04 10:00:35;;;;;;;6.60;1.90;;;;;;;;;;5001945;28;20048;-53
2021/09/04 10:03:01;;;;;;;6.95;1.85;;;;;;;;;;5003046;28;20526;-54
2021/09/04 10:05:28;;;;;;;7.32;1.65;;;;;;;;;;5002084;28;20037;-51
2021/09/04 10:07:54;;;;;;;7.53;1.90;;;;;;;;;;5002472;28;20038;-57
2021/09/04 10:10:42;;;;;;;10.60;1.73;;;;;;;;;;5002995;28;20045;-54
2021/09/04 10:13:08;;;;;;;5.90;1.70;;;;;;;;;;5002493;28;20101;-55
2021/09/04 10:15:37;;;;;;;6.35;1.70;;;;;;;;;;5001648;28;20468;-52
2021/09/04 10:18:05;;;;;;;6.20;1.88;;;;;;;;;;5002848;28;20417;-54
2021/09/04 10:20:31;;;;;;;5.72;1.77;;;;;;;;;;4988654;28;20034;-54
2021/09/04 10:23:09;;;;;;;5.82;1.70;;;;;;;;;;5002062;28;20037;-51
2021/09/04 10:25:35;;;;;;;5.85;1.38;;;;;;;;;;5002239;28;20151;-54
2021/09/04 10:28:02;;;;;;;9.38;1.85;;;;;;;;;;5004542;28;20049;-53
2021/09/04 10:30:29;;;;;;;10.38;1.67;;;;;;;;;;5001123;28;20055;-51
2021/09/04 10:33:01;;;;;;;4.63;1.73;;;;;;;;;;5002035;28;20420;-52
2021/09/04 10:35:41;;;;;;;10.68;1.70;;;;;;;;;;5002199;28;20046;-54
2021/09/04 10:38:18;;;;;;;4.32;1.55;;;;;;;;;;5003027;28;20091;-54
2021/09/04 10:40:48;;;;;;;4.93;1.70;;;;;;;;;;5002320;28;20057;-53
2021/09/04 10:43:15;;;;;;;5.78;2.03;;;;;;;;;;5003523;28;20041;-54
2021/09/04 10:45:43;;;;;;;5.38;1.80;;;;;;;;;;4980150;28;20046;-54
2021/09/04 10:48:16;;;;;;;5.32;1.70;;;;;;;;;;4985836;28;20151;-53
2021/09/04 10:50:42;;;;;;;8.45;2.05;;;;;;;;;;5003256;28;20066;-54
2021/09/04 10:53:08;;;;;;;7.38;1.70;;;;;;;;;;5004813;28;20522;-52
2021/09/04 10:55:34;;;;;;;5.22;1.85;;;;;;;;;;5002770;28;20042;-51
2021/09/04 10:58:26;;;;;;;6.03;2.15;;;;;;;;;;5002445;28;20625;-54
2021/09/04 11:00:52;;;;;;;7.57;2.13;;;;;;;;;;4998415;28;20038;-53
2021/09/04 11:03:21;;;;;;;7.50;1.90;;;;;;;;;;5000796;28;20554;-54
2021/09/04 11:05:51;;;;;;;7.78;2.10;;;;;;;;;;5000967;28;20037;-54
2021/09/04 11:08:20;;;;;;;3.95;1.77;;;;;;;;;;5001866;28;20127;-54
2021/09/04 11:10:49;;;;;;;5.75;1.60;;;;;;;;;;5001413;28;20057;-51
2021/09/04 11:13:17;;;;;;;7.05;1.80;;;;;;;;;;5001668;28;20449;-54
2021/09/04 11:15:46;;;;;;;5.18;1.80;;;;;;;;;;5000911;28;20051;-53
2021/09/04 11:18:12;;;;;;;5.78;2.05;;;;;;;;;;5002023;28;20029;-54
2021/09/04 11:20:42;;;;;;;5.45;1.80;;;;;;;;;;5003431;28;20474;-51
2021/09/04 11:23:08;;;;;;;7.20;2.22;;;;;;;;;;5001268;28;20171;-54
2021/09/04 11:25:34;;;;;;;5.10;1.85;;;;;;;;;;5001358;28;20575;-54
2021/09/04 11:27:59;;;;;;;6.57;1.60;;;;;;;;;;5002083;28;20041;-54
2021/09/04 11:30:25;;;;;;;6.10;2.00;;;;;;;;;;5000664;28;20034;-55
2021/09/04 11:32:51;;;;;;;5.70;1.98;;;;;;;;;;5000165;28;20564;-54
2021/09/04 11:35:17;;;;;;;6.63;2.00;;;;;;;;;;5001218;28;20042;-54
2021/09/04 11:37:44;;;;;;;3.80;1.42;;;;;;;;;;5001458;28;20057;-55
2021/09/04 11:40:11;;;;;;;15.43;2.20;;;;;;;;;;5001343;28;20552;-54
2021/09/04 11:42:41;;;;;;;11.85;2.22;;;;;;;;;;5000648;28;20043;-54
2021/09/04 11:45:11;;;;;;;6.03;1.75;;;;;;;;;;5001775;28;20038;-53
2021/09/04 11:47:43;;;;;;;8.52;1.83;;;;;;;;;;5001409;28;20134;-54
2021/09/04 11:50:10;;;;;;;7.95;2.15;;;;;;;;;;5002635;28;20034;-54
2021/09/04 11:52:38;;;;;;;6.45;1.88;;;;;;;;;;5001445;28;20049;-53
2021/09/04 11:55:04;;;;;;;8.18;2.10;;;;;;;;;;5001557;28;20146;-54
2021/09/04 11:57:31;;;;;;;6.82;2.53;;;;;;;;;;5000188;28;20049;-54
2021/09/04 12:00:01;;;;;;;11.07;1.80;;;;;;;;;;5001345;28;20042;-54
2021/09/04 12:02:27;;;;;;;6.03;2.08;;;;;;;;;;5001037;28;20033;-54
2021/09/04 12:04:53;;;;;;;10.55;2.10;;;;;;;;;;5001832;28;20385;-53
2021/09/04 12:07:19;;;;;;;6.85;2.17;;;;;;;;;;4980431;28;20052;-54
2021/09/04 12:09:45;;;;;;;5.90;1.70;;;;;;;;;;5001556;28;20041;-53
2021/09/04 12:12:11;;;;;;;6.55;1.77;;;;;;;;;;5001181;28;20516;-53
2021/09/04 12:14:37;;;;;;;10.15;1.98;;;;;;;;;;4999373;28;20493;-52
2021/09/04 12:17:06;;;;;;;5.22;2.10;;;;;;;;;;5001314;28;20060;-52
2021/09/04 12:19:38;;;;;;;11.20;1.85;;;;;;;;;;5001527;28;20048;-54
2021/09/04 12:22:05;;;;;;;7.57;2.35;;;;;;;;;;4980541;28;20070;-54
2021/09/04 12:24:31;;;;;;;4.40;1.75;;;;;;;;;;4998568;28;20049;-53
2021/09/04 12:26:57;;;;;;;11.05;2.00;;;;;;;;;;5000726;28;20619;-51
2021/09/04 12:29:32;;;;;;;5.18;1.83;;;;;;;;;;5000015;28;20046;-53
2021/09/04 12:32:08;;;;;;;6.85;1.65;;;;;;;;;;5000244;28;20085;-54
2021/09/04 12:34:35;;;;;;;5.25;1.77;;;;;;;;;;4999013;28;20500;-53
2021/09/04 12:37:00;;;;;;;14.82;2.55;;;;;;;;;;5000978;28;20485;-51
2021/09/04 12:39:30;;;;;;;4.10;1.73;;;;;;;;;;5001035;28;20037;-51
2021/09/04 12:42:00;;;;;;;13.68;2.15;;;;;;;;;;4999560;28;20042;-54
2021/09/04 12:44:36;;;;;;;11.95;1.98;;;;;;;;;;5000352;28;20061;-52
2021/09/04 12:47:02;;;;;;;7.97;2.20;;;;;;;;;;5000783;28;20038;-53
2021/09/04 12:49:30;;;;;;;5.30;2.20;;;;;;;;;;5000495;28;20065;-54
2021/09/04 12:52:14;;;;;;;7.85;2.10;;;;;;;;;;4999874;28;20053;-54
2021/09/04 12:54:40;;;;;;;8.52;2.17;;;;;;;;;;4998291;28;20041;-55
2021/09/04 12:57:08;;;;;;;9.82;1.85;;;;;;;;;;5000586;28;20034;-52
2021/09/04 12:59:46;;;;;;;8.70;2.45;;;;;;;;;;4999514;28;20034;-51
2021/09/04 13:02:14;;;;;;;7.85;2.20;;;;;;;;;;5000213;28;20037;-53
2021/09/04 13:04:41;;;;;;;12.80;2.05;;;;;;;;;;4998774;28;20479;-54
2021/09/04 13:07:07;;;;;;;4.80;1.80;;;;;;;;;;5000704;28;20042;-54
2021/09/04 13:09:33;;;;;;;7.10;2.10;;;;;;;;;;4999433;28;20038;-53
2021/09/04 13:11:58;;;;;;;7.32;1.73;;;;;;;;;;5000825;28;20050;-52
2021/09/04 13:14:24;;;;;;;9.25;2.40;;;;;;;;;;4999171;28;20136;-55
2021/09/04 13:16:50;;;;;;;9.50;2.10;;;;;;;;;;5000022;28;20050;-54
2021/09/04 13:19:16;;;;;;;5.13;1.85;;;;;;;;;;5001362;28;20121;-52
2021/09/04 13:21:45;;;;;;;6.30;2.38;;;;;;;;;;4984997;28;20049;-53
2021/09/04 13:24:10;;;;;;;5.85;2.05;;;;;;;;;;4999442;28;20130;-54
2021/09/04 13:26:36;;;;;;;7.93;2.47;;;;;;;;;;4998863;28;20084;-52
2021/09/04 13:29:02;;;;;;;8.02;3.03;;;;;;;;;;5001085;28;20030;-54
2021/09/04 13:31:28;;;;;;;7.18;2.13;;;;;;;;;;4998931;28;20029;-55
2021/09/04 13:33:54;;;;;;;8.32;2.67;;;;;;;;;;5000756;28;20042;-52
2021/09/04 13:36:20;;;;;;;5.97;2.03;;;;;;;;;;4999852;28;20033;-55
2021/09/04 13:38:45;;;;;;;6.00;1.95;;;;;;;;;;4999210;28;20053;-55
2021/09/04 13:41:11;;;;;;;6.90;1.90;;;;;;;;;;4997957;28;20034;-52
2021/09/04 13:43:37;;;;;;;6.88;2.30;;;;;;;;;;4998708;28;20117;-53
2021/09/04 13:46:03;;;;;;;8.70;2.05;;;;;;;;;;4998611;28;20056;-55
2021/09/04 13:48:29;;;;;;;5.28;1.80;;;;;;;;;;4999178;28;20042;-55
2021/09/04 13:50:55;;;;;;;5.70;2.00;;;;;;;;;;4995335;28;20120;-53
2021/09/04 13:53:20;;;;;;;8.52;2.10;;;;;;;;;;4999165;28;20465;-54
2021/09/04 13:55:47;;;;;;;7.95;2.40;;;;;;;;;;4999299;28;20041;-55
2021/09/04 13:58:13;;;;;;;11.35;2.05;;;;;;;;;;5000069;28;20041;-53
2021/09/04 14:00:40;;;;;;;7.45;2.20;;;;;;;;;;4981715;28;20393;-55
2021/09/04 14:03:06;;;;;;;13.18;2.15;;;;;;;;;;4999154;28;20084;-54
2021/09/04 14:05:32;;;;;;;5.28;2.22;;;;;;;;;;4998120;28;20046;-55
2021/09/04 14:07:58;;;;;;;6.65;2.10;;;;;;;;;;5001078;28;20038;-55
2021/09/04 14:10:24;;;;;;;8.30;2.17;;;;;;;;;;4998380;28;20038;-57
2021/09/04 14:12:50;;;;;;;5.95;2.08;;;;;;;;;;4998919;28;20052;-54
2021/09/04 14:15:15;;;;;;;7.78;2.03;;;;;;;;;;5000612;28;20500;-57
2021/09/04 14:17:41;;;;;;;7.05;2.25;;;;;;;;;;5000102;28;20134;-55
2021/09/04 14:20:08;;;;;;;4.57;1.70;;;;;;;;;;5000402;28;20034;-56
2021/09/04 14:22:34;;;;;;;9.45;1.65;;;;;;;;;;5000509;28;20128;-57
2021/09/04 14:25:00;;;;;;;5.32;1.70;;;;;;;;;;4997342;28;20045;-56
2021/09/04 14:27:46;;;;;;;5.82;1.98;;;;;;;;;;4931481;28;20531;-57
2021/09/04 14:30:11;;;;;;;13.45;2.08;;;;;;;;;;4932881;28;20084;-58
2021/09/04 14:32:37;;;;;;;5.32;2.10;;;;;;;;;;4931184;28;20051;-53
2021/09/04 14:35:04;;;;;;;11.48;2.22;;;;;;;;;;4929991;28;20118;-57
2021/09/04 14:37:29;;;;;;;10.70;2.20;;;;;;;;;;4931922;28;20043;-57
2021/09/04 14:39:55;;;;;;;8.07;2.17;;;;;;;;;;4931664;29;20754;-54